Time;durP1;ratioP1;P1;durP2;ratioP2;P2;SDS_P1;SDS_P2;PMS_P1;PMS_P2;Temp;Humidity;BMP_temperature;BMP_pressure;BME280_temperature;BME280_humidity;BME280_pressure;Samples;Min_cycle;Max_cycle;Signal;HPM_P1;HPM_P2
2023/05/10 00:00:48;;;;;;;8.65;6.78;;;;;;;;;;5074149;28;20297;-65
2023/05/10 00:03:14;;;;;;;8.50;6.18;;;;;;;;;;5072200;28;20056;-65
2023/05/10 00:05:40;;;;;;;10.85;6.45;;;;;;;;;;5075367;27;20051;-65
2023/05/10 00:08:07;;;;;;;7.95;6.00;;;;;;;;;;5097074;27;20065;-65
2023/05/10 00:10:33;;;;;;;8.88;6.07;;;;;;;;;;5077245;27;20126;-65
2023/05/10 00:12:59;;;;;;;8.48;6.43;;;;;;;;;;5074695;28;20053;-65
2023/05/10 00:15:25;;;;;;;8.95;6.63;;;;;;;;;;5094598;27;20387;-65
2023/05/10 00:17:51;;;;;;;8.50;6.55;;;;;;;;;;5072637;28;20481;-65
2023/05/10 00:20:17;;;;;;;14.13;7.90;;;;;;;;;;5087944;27;20040;-65
2023/05/10 00:22:43;;;;;;;10.20;7.50;;;;;;;;;;5070515;28;20055;-65
2023/05/10 00:25:10;;;;;;;11.57;8.40;;;;;;;;;;5073098;28;20048;-64
2023/05/10 00:27:36;;;;;;;11.43;7.70;;;;;;;;;;5097653;28;20051;-65
2023/05/10 00:30:02;;;;;;;13.13;9.30;;;;;;;;;;5094304;28;20036;-65
2023/05/10 00:32:28;;;;;;;11.50;8.60;;;;;;;;;;5099855;28;20040;-65
2023/05/10 00:34:55;;;;;;;13.15;9.18;;;;;;;;;;5080152;28;20483;-65
2023/05/10 00:37:21;;;;;;;14.95;8.98;;;;;;;;;;5077007;28;20078;-65
2023/05/10 00:39:48;;;;;;;11.48;8.68;;;;;;;;;;5097203;27;20047;-65
2023/05/10 00:42:14;;;;;;;13.65;10.10;;;;;;;;;;5074623;28;20079;-65
2023/05/10 00:44:40;;;;;;;11.75;8.98;;;;;;;;;;5094377;28;20059;-65
2023/05/10 00:47:07;;;;;;;10.35;8.38;;;;;;;;;;5075320;28;20036;-65
2023/05/10 00:49:33;;;;;;;10.50;7.78;;;;;;;;;;5094945;28;20491;-65
2023/05/10 00:52:01;;;;;;;10.32;8.02;;;;;;;;;;5097929;28;20059;-65
2023/05/10 00:54:28;;;;;;;8.23;6.40;;;;;;;;;;5078137;28;20582;-65
2023/05/10 00:56:54;;;;;;;9.88;6.63;;;;;;;;;;5096260;28;20399;-65
2023/05/10 00:59:20;;;;;;;8.07;6.43;;;;;;;;;;5073779;28;20051;-66
2023/05/10 01:01:46;;;;;;;6.82;5.63;;;;;;;;;;5088531;27;20100;-65
2023/05/10 01:04:13;;;;;;;6.63;4.93;;;;;;;;;;5071203;28;20070;-65
2023/05/10 01:06:40;;;;;;;7.15;5.03;;;;;;;;;;5069212;28;21086;-65
2023/05/10 01:09:06;;;;;;;9.23;6.22;;;;;;;;;;5091716;27;20043;-65
2023/05/10 01:11:34;;;;;;;10.30;5.60;;;;;;;;;;5072154;28;20517;-65
2023/05/10 01:14:00;;;;;;;11.35;5.97;;;;;;;;;;5073151;28;20224;-65
2023/05/10 01:16:26;;;;;;;14.90;8.40;;;;;;;;;;5070805;28;20078;-75
2023/05/10 01:18:53;;;;;;;17.73;10.20;;;;;;;;;;5069780;28;20043;-65
2023/05/10 01:21:19;;;;;;;21.33;11.77;;;;;;;;;;5068509;28;20131;-65
2023/05/10 01:24:01;;;;;;;22.92;11.82;;;;;;;;;;5094086;27;20040;-65
2023/05/10 01:26:44;;;;;;;23.52;13.25;;;;;;;;;;5090564;27;20055;-65
2023/05/10 01:29:14;;;;;;;28.52;14.25;;;;;;;;;;5078161;28;20174;-65
2023/05/10 01:31:55;;;;;;;30.73;14.68;;;;;;;;;;5066059;28;20143;-65
2023/05/10 01:34:26;;;;;;;34.88;13.40;;;;;;;;;;5070589;28;20036;-65
2023/05/10 01:36:55;;;;;;;29.38;13.77;;;;;;;;;;5070788;28;20044;-65
2023/05/10 01:39:26;;;;;;;29.40;14.30;;;;;;;;;;5073250;28;20067;-65
2023/05/10 01:41:57;;;;;;;26.75;14.02;;;;;;;;;;5069902;28;20044;-65
2023/05/10 01:44:29;;;;;;;42.17;14.70;;;;;;;;;;5071412;28;20041;-65
2023/05/10 01:47:12;;;;;;;30.45;14.73;;;;;;;;;;5067441;28;20146;-65
2023/05/10 01:49:42;;;;;;;24.25;12.57;;;;;;;;;;5050765;28;20634;-64
2023/05/10 01:52:11;;;;;;;32.92;13.70;;;;;;;;;;5068476;28;20043;-65
2023/05/10 01:54:39;;;;;;;35.08;14.10;;;;;;;;;;5070327;28;20044;-65
2023/05/10 01:57:08;;;;;;;38.03;13.15;;;;;;;;;;5066980;28;20032;-65
2023/05/10 01:59:38;;;;;;;26.83;12.77;;;;;;;;;;5067844;28;20049;-65
2023/05/10 02:02:06;;;;;;;27.80;13.02;;;;;;;;;;5065329;28;20048;-65
2023/05/10 02:04:33;;;;;;;31.88;13.38;;;;;;;;;;5075675;28;20425;-65
2023/05/10 02:07:00;;;;;;;31.98;13.30;;;;;;;;;;5071075;28;20055;-65
2023/05/10 02:09:27;;;;;;;30.30;13.00;;;;;;;;;;5070735;28;20360;-65
2023/05/10 02:11:54;;;;;;;29.83;12.95;;;;;;;;;;5070151;28;20060;-65
2023/05/10 02:14:21;;;;;;;29.55;13.30;;;;;;;;;;5069760;28;20044;-65
2023/05/10 02:16:48;;;;;;;26.52;12.70;;;;;;;;;;5069260;28;20036;-65
2023/05/10 02:19:14;;;;;;;24.85;11.82;;;;;;;;;;5064602;28;20051;-65
2023/05/10 02:21:42;;;;;;;26.77;12.88;;;;;;;;;;5070553;28;20052;-65
2023/05/10 02:24:09;;;;;;;22.30;12.00;;;;;;;;;;5067227;28;20062;-65
2023/05/10 02:26:36;;;;;;;24.63;12.70;;;;;;;;;;5067835;28;20048;-65
2023/05/10 02:29:04;;;;;;;22.23;12.90;;;;;;;;;;5070976;28;20523;-65
2023/05/10 02:31:32;;;;;;;16.40;9.60;;;;;;;;;;5084048;28;20093;-65
2023/05/10 02:33:59;;;;;;;14.80;8.48;;;;;;;;;;5079345;28;20052;-65
2023/05/10 02:36:27;;;;;;;12.63;8.93;;;;;;;;;;5101268;28;20449;-65
2023/05/10 02:38:54;;;;;;;11.15;8.30;;;;;;;;;;5082190;28;20040;-65
2023/05/10 02:41:22;;;;;;;7.90;6.13;;;;;;;;;;5102009;28;20050;-65
2023/05/10 02:43:50;;;;;;;7.00;5.15;;;;;;;;;;5098462;28;20036;-65
2023/05/10 02:46:16;;;;;;;7.72;5.97;;;;;;;;;;5079085;28;20044;-65
2023/05/10 02:48:42;;;;;;;6.75;5.00;;;;;;;;;;5077801;28;20040;-65
2023/05/10 02:51:08;;;;;;;5.82;3.78;;;;;;;;;;5099165;28;20066;-65
2023/05/10 02:53:37;;;;;;;5.28;3.95;;;;;;;;;;5083627;28;20075;-65
2023/05/10 02:56:06;;;;;;;4.55;3.55;;;;;;;;;;5101228;28;20040;-65
2023/05/10 02:58:33;;;;;;;5.43;3.70;;;;;;;;;;5097834;28;20063;-65
2023/05/10 03:01:00;;;;;;;5.68;4.00;;;;;;;;;;5074332;27;20131;-65
2023/05/10 03:03:26;;;;;;;5.50;3.50;;;;;;;;;;5091301;27;20043;-65
2023/05/10 03:05:55;;;;;;;7.63;4.07;;;;;;;;;;5090583;27;20040;-65
2023/05/10 03:08:23;;;;;;;5.32;4.00;;;;;;;;;;5071114;28;20069;-65
2023/05/10 03:10:55;;;;;;;5.43;4.20;;;;;;;;;;5090623;28;20055;-65
2023/05/10 03:13:29;;;;;;;5.20;3.75;;;;;;;;;;5097342;28;20039;-65
2023/05/10 03:16:00;;;;;;;4.40;3.40;;;;;;;;;;5067273;28;20087;-65
2023/05/10 03:18:31;;;;;;;5.00;3.50;;;;;;;;;;5071569;28;20483;-65
2023/05/10 03:21:00;;;;;;;4.90;2.83;;;;;;;;;;5071792;28;20072;-65
2023/05/10 03:23:29;;;;;;;5.20;3.28;;;;;;;;;;5076383;28;20035;-65
2023/05/10 03:25:55;;;;;;;4.82;3.10;;;;;;;;;;5092056;28;20098;-65
2023/05/10 03:28:21;;;;;;;5.50;3.47;;;;;;;;;;5069351;28;20138;-65
2023/05/10 03:30:48;;;;;;;7.43;3.80;;;;;;;;;;5086141;28;20097;-65
2023/05/10 03:33:14;;;;;;;6.63;4.30;;;;;;;;;;5067154;28;20047;-65
2023/05/10 03:35:40;;;;;;;7.03;4.57;;;;;;;;;;5086901;28;20048;-65
2023/05/10 03:38:06;;;;;;;9.82;5.30;;;;;;;;;;5088874;27;20163;-65
2023/05/10 03:40:32;;;;;;;10.05;6.65;;;;;;;;;;5092889;27;20052;-65
2023/05/10 03:42:59;;;;;;;11.75;6.60;;;;;;;;;;5094785;27;20043;-65
2023/05/10 03:45:25;;;;;;;15.10;8.35;;;;;;;;;;5092767;27;20503;-65
2023/05/10 03:47:51;;;;;;;16.95;8.77;;;;;;;;;;5089345;27;20050;-65
2023/05/10 03:50:18;;;;;;;19.55;8.68;;;;;;;;;;5092402;27;20577;-65
2023/05/10 03:52:44;;;;;;;16.67;9.00;;;;;;;;;;5090791;27;20636;-65
2023/05/10 03:55:10;;;;;;;17.48;8.95;;;;;;;;;;5093102;27;20070;-65
2023/05/10 03:57:36;;;;;;;19.75;9.65;;;;;;;;;;5075338;28;20043;-65
2023/05/10 04:00:03;;;;;;;18.20;9.23;;;;;;;;;;5098052;27;20164;-65
2023/05/10 04:02:30;;;;;;;24.58;11.48;;;;;;;;;;5077479;28;20052;-65
2023/05/10 04:04:56;;;;;;;18.45;11.13;;;;;;;;;;5097007;27;20101;-65
2023/05/10 04:07:22;;;;;;;24.83;11.25;;;;;;;;;;5093853;27;20051;-65
2023/05/10 04:09:48;;;;;;;17.10;11.00;;;;;;;;;;5076579;27;20097;-65
2023/05/10 04:12:15;;;;;;;20.55;11.00;;;;;;;;;;5091757;27;21413;-65
2023/05/10 04:14:41;;;;;;;17.38;11.73;;;;;;;;;;5096097;27;20062;-65
2023/05/10 04:17:07;;;;;;;17.02;11.05;;;;;;;;;;5098062;27;20395;-65
2023/05/10 04:19:33;;;;;;;18.55;10.48;;;;;;;;;;5094235;27;20056;-65
2023/05/10 04:21:59;;;;;;;19.98;10.73;;;;;;;;;;5093215;28;20051;-65
2023/05/10 04:24:26;;;;;;;19.80;10.77;;;;;;;;;;5094437;27;20031;-65
2023/05/10 04:26:52;;;;;;;17.85;10.00;;;;;;;;;;5082174;28;20403;-65
2023/05/10 04:29:18;;;;;;;23.02;11.88;;;;;;;;;;5103393;28;20040;-65
2023/05/10 04:31:44;;;;;;;26.27;13.05;;;;;;;;;;5080817;28;20118;-65
2023/05/10 04:34:10;;;;;;;24.20;13.55;;;;;;;;;;5079276;28;20056;-65
2023/05/10 04:36:37;;;;;;;25.65;15.48;;;;;;;;;;5072689;28;20090;-65
2023/05/10 04:39:03;;;;;;;27.10;15.57;;;;;;;;;;5070820;28;20036;-65
2023/05/10 04:41:30;;;;;;;18.63;12.75;;;;;;;;;;5083738;28;20057;-65
2023/05/10 04:43:56;;;;;;;22.17;13.23;;;;;;;;;;5082415;28;20070;-65
2023/05/10 04:46:22;;;;;;;18.55;11.40;;;;;;;;;;5076514;28;20055;-65
2023/05/10 04:48:48;;;;;;;15.93;11.43;;;;;;;;;;5077865;28;20032;-64
2023/05/10 04:51:14;;;;;;;11.82;8.57;;;;;;;;;;5084716;28;20059;-65
2023/05/10 04:53:40;;;;;;;9.90;6.22;;;;;;;;;;5079073;28;20040;-65
2023/05/10 04:56:07;;;;;;;6.57;4.70;;;;;;;;;;5080845;28;20044;-65
2023/05/10 04:58:33;;;;;;;5.07;3.60;;;;;;;;;;5072900;28;20384;-65
2023/05/10 05:01:05;;;;;;;3.95;2.60;;;;;;;;;;5073498;28;20503;-65
2023/05/10 05:03:32;;;;;;;3.42;2.03;;;;;;;;;;5073944;28;20063;-65
2023/05/10 05:05:58;;;;;;;4.47;2.80;;;;;;;;;;5068586;28;20093;-65
2023/05/10 05:08:25;;;;;;;4.70;2.97;;;;;;;;;;5069846;28;20036;-65
2023/05/10 05:10:51;;;;;;;4.00;2.58;;;;;;;;;;5070801;28;20564;-65
2023/05/10 05:13:17;;;;;;;4.53;2.60;;;;;;;;;;5072079;28;20471;-64
2023/05/10 05:15:43;;;;;;;4.60;2.72;;;;;;;;;;5069308;28;20506;-65
2023/05/10 05:18:09;;;;;;;5.13;3.30;;;;;;;;;;5067293;28;20070;-64
2023/05/10 05:20:36;;;;;;;7.13;4.80;;;;;;;;;;5069280;28;20045;-64
2023/05/10 05:23:02;;;;;;;6.70;5.03;;;;;;;;;;5068344;28;20075;-64
2023/05/10 05:25:28;;;;;;;12.85;5.57;;;;;;;;;;5078156;28;20132;-64
2023/05/10 05:27:54;;;;;;;9.52;6.57;;;;;;;;;;5068407;28;20066;-63
2023/05/10 05:30:20;;;;;;;9.55;6.68;;;;;;;;;;5073886;28;20496;-63
2023/05/10 05:32:47;;;;;;;10.70;7.28;;;;;;;;;;5070995;28;20127;-64
2023/05/10 05:35:14;;;;;;;11.02;7.53;;;;;;;;;;5072440;28;20044;-64
2023/05/10 05:37:40;;;;;;;12.23;7.30;;;;;;;;;;5073355;28;20044;-63
2023/05/10 05:40:06;;;;;;;11.57;7.95;;;;;;;;;;5074330;28;20036;-64
2023/05/10 05:42:32;;;;;;;10.63;8.23;;;;;;;;;;5076368;28;20043;-64
2023/05/10 05:44:59;;;;;;;9.43;6.85;;;;;;;;;;5071859;28;20124;-64
2023/05/10 05:47:25;;;;;;;10.30;6.82;;;;;;;;;;5074374;28;20045;-63
2023/05/10 05:49:51;;;;;;;12.20;6.97;;;;;;;;;;5071643;28;20121;-64
2023/05/10 05:52:17;;;;;;;9.60;6.97;;;;;;;;;;5069840;28;20040;-64
2023/05/10 05:54:43;;;;;;;9.93;7.55;;;;;;;;;;5073059;28;20467;-64
2023/05/10 05:57:10;;;;;;;12.68;8.05;;;;;;;;;;5072667;28;20431;-64
2023/05/10 05:59:36;;;;;;;13.05;7.10;;;;;;;;;;5076537;28;20040;-64
2023/05/10 06:02:02;;;;;;;11.38;7.82;;;;;;;;;;5074270;28;20048;-64
2023/05/10 06:04:28;;;;;;;12.60;8.52;;;;;;;;;;5068184;28;20055;-64
2023/05/10 06:06:54;;;;;;;11.35;7.63;;;;;;;;;;5069621;28;20143;-64
2023/05/10 06:09:20;;;;;;;12.63;8.00;;;;;;;;;;5077908;28;21716;-64
2023/05/10 06:11:47;;;;;;;12.55;8.30;;;;;;;;;;5073311;28;20123;-64
2023/05/10 06:14:13;;;;;;;11.32;6.78;;;;;;;;;;5071109;28;20036;-64
2023/05/10 06:16:39;;;;;;;11.70;7.20;;;;;;;;;;5073363;28;20204;-64
2023/05/10 06:19:05;;;;;;;11.55;6.35;;;;;;;;;;5070856;28;20063;-64
2023/05/10 06:21:31;;;;;;;7.65;5.75;;;;;;;;;;5070645;28;20050;-64
2023/05/10 06:23:57;;;;;;;9.93;6.30;;;;;;;;;;5077329;28;20067;-66
2023/05/10 06:26:24;;;;;;;10.20;6.03;;;;;;;;;;5076239;28;20051;-65
2023/05/10 06:28:50;;;;;;;9.43;5.35;;;;;;;;;;5077619;28;20040;-65
2023/05/10 06:31:17;;;;;;;7.70;4.32;;;;;;;;;;5074939;28;20048;-65
2023/05/10 06:33:43;;;;;;;6.65;3.80;;;;;;;;;;5093521;27;20040;-65
2023/05/10 06:36:09;;;;;;;7.65;3.95;;;;;;;;;;5101056;28;20096;-66
2023/05/10 06:38:36;;;;;;;5.93;3.15;;;;;;;;;;5097548;27;20051;-65
2023/05/10 06:41:02;;;;;;;5.43;3.13;;;;;;;;;;5090353;27;20051;-65
2023/05/10 06:43:28;;;;;;;5.13;2.70;;;;;;;;;;5093166;28;20032;-66
2023/05/10 06:45:55;;;;;;;11.52;2.40;;;;;;;;;;5082847;28;20044;-65
2023/05/10 06:48:21;;;;;;;5.22;2.42;;;;;;;;;;5096174;27;20078;-65
2023/05/10 06:50:47;;;;;;;4.68;2.60;;;;;;;;;;5071654;28;20052;-65
2023/05/10 06:53:13;;;;;;;4.93;2.40;;;;;;;;;;5095653;27;20391;-67
2023/05/10 06:55:39;;;;;;;6.97;3.65;;;;;;;;;;5074177;28;20101;-65
2023/05/10 06:58:06;;;;;;;6.70;3.28;;;;;;;;;;5077454;27;20437;-66
2023/05/10 07:00:32;;;;;;;9.93;3.55;;;;;;;;;;5095752;27;20093;-66
2023/05/10 07:02:58;;;;;;;7.93;3.67;;;;;;;;;;5079265;28;20043;-66
2023/05/10 07:05:24;;;;;;;6.35;3.50;;;;;;;;;;5096944;28;20091;-65
2023/05/10 07:07:51;;;;;;;4.70;2.90;;;;;;;;;;5076296;28;20086;-66
2023/05/10 07:10:17;;;;;;;6.32;3.40;;;;;;;;;;5077603;28;20055;-66
2023/05/10 07:12:43;;;;;;;9.30;3.47;;;;;;;;;;5071258;28;20031;-66
2023/05/10 07:15:10;;;;;;;5.30;3.47;;;;;;;;;;5074447;27;20036;-66
2023/05/10 07:17:36;;;;;;;6.97;3.80;;;;;;;;;;5073420;28;20435;-66
2023/05/10 07:20:03;;;;;;;6.20;3.55;;;;;;;;;;5093429;28;20141;-65
2023/05/10 07:22:29;;;;;;;6.50;3.75;;;;;;;;;;5093736;28;20055;-65
2023/05/10 07:24:55;;;;;;;6.05;3.25;;;;;;;;;;5098423;28;20055;-66
2023/05/10 07:27:22;;;;;;;5.43;3.13;;;;;;;;;;5074150;28;20051;-66
2023/05/10 07:29:48;;;;;;;6.38;2.80;;;;;;;;;;5074698;28;20054;-66
2023/05/10 07:32:14;;;;;;;6.28;3.40;;;;;;;;;;5091204;28;20161;-66
2023/05/10 07:34:41;;;;;;;6.45;3.50;;;;;;;;;;5078882;28;20047;-66
2023/05/10 07:37:07;;;;;;;6.93;3.83;;;;;;;;;;5090593;28;20051;-66
2023/05/10 07:39:33;;;;;;;5.93;3.13;;;;;;;;;;5096108;28;20115;-66
2023/05/10 07:41:59;;;;;;;5.47;2.83;;;;;;;;;;5068728;28;20048;-66
2023/05/10 07:44:25;;;;;;;4.57;2.95;;;;;;;;;;5096745;28;20411;-66
2023/05/10 07:46:52;;;;;;;4.90;2.88;;;;;;;;;;5063117;28;20120;-66
2023/05/10 07:49:18;;;;;;;7.03;2.72;;;;;;;;;;5071274;28;20539;-67
2023/05/10 07:51:44;;;;;;;4.50;2.80;;;;;;;;;;5077678;28;20040;-66
2023/05/10 07:54:11;;;;;;;5.45;2.65;;;;;;;;;;5093514;28;20035;-66
2023/05/10 07:56:37;;;;;;;5.20;2.67;;;;;;;;;;5070905;28;20051;-66
2023/05/10 07:59:04;;;;;;;5.80;3.28;;;;;;;;;;5075217;28;20040;-66
2023/05/10 08:01:32;;;;;;;8.98;3.35;;;;;;;;;;5069462;28;20123;-66
2023/05/10 08:03:58;;;;;;;10.98;4.55;;;;;;;;;;5073196;28;20043;-66
2023/05/10 08:06:26;;;;;;;7.57;3.45;;;;;;;;;;5071374;28;20078;-66
2023/05/10 08:08:53;;;;;;;8.73;4.03;;;;;;;;;;5094759;28;20067;-66
2023/05/10 08:11:21;;;;;;;6.95;4.20;;;;;;;;;;5076564;28;20052;-66
2023/05/10 08:13:47;;;;;;;8.77;4.10;;;;;;;;;;5070494;28;20113;-66
2023/05/10 08:16:14;;;;;;;7.78;4.70;;;;;;;;;;5094444;28;20055;-66
2023/05/10 08:18:40;;;;;;;8.18;4.43;;;;;;;;;;5094897;28;20085;-66
2023/05/10 08:21:07;;;;;;;7.22;4.30;;;;;;;;;;5075701;28;20051;-66
2023/05/10 08:23:33;;;;;;;8.02;4.30;;;;;;;;;;5090731;28;20043;-66
2023/05/10 08:25:59;;;;;;;6.97;4.40;;;;;;;;;;5090594;28;20131;-66
2023/05/10 08:28:25;;;;;;;6.43;4.18;;;;;;;;;;5093593;27;20040;-66
2023/05/10 08:30:52;;;;;;;6.18;3.78;;;;;;;;;;5094975;27;20473;-66
2023/05/10 08:33:18;;;;;;;9.27;3.80;;;;;;;;;;5095814;27;20048;-66
2023/05/10 08:35:45;;;;;;;6.13;3.58;;;;;;;;;;5094521;27;20055;-66
2023/05/10 08:38:12;;;;;;;8.95;3.40;;;;;;;;;;5096812;28;20055;-66
2023/05/10 08:40:38;;;;;;;6.82;3.30;;;;;;;;;;5078856;28;20134;-66
2023/05/10 08:43:07;;;;;;;11.50;3.60;;;;;;;;;;5075467;28;20048;-66
2023/05/10 08:45:37;;;;;;;7.00;3.13;;;;;;;;;;5078383;28;20075;-66
2023/05/10 08:48:05;;;;;;;7.07;3.28;;;;;;;;;;5074383;28;20044;-66
2023/05/10 08:50:31;;;;;;;6.55;3.67;;;;;;;;;;5100783;27;20040;-66
2023/05/10 08:52:59;;;;;;;6.30;3.13;;;;;;;;;;5076706;28;20043;-66
2023/05/10 08:55:26;;;;;;;7.72;4.07;;;;;;;;;;5075243;28;20048;-66
2023/05/10 08:57:52;;;;;;;7.55;4.32;;;;;;;;;;5093672;27;20035;-66
2023/05/10 09:00:19;;;;;;;6.32;4.03;;;;;;;;;;5092163;27;20046;-66
2023/05/10 09:02:46;;;;;;;7.43;4.53;;;;;;;;;;5093097;27;20051;-66
2023/05/10 09:05:15;;;;;;;7.15;4.30;;;;;;;;;;5082620;28;20039;-66
2023/05/10 09:07:42;;;;;;;7.43;3.97;;;;;;;;;;5099279;27;20055;-66
2023/05/10 09:10:09;;;;;;;7.00;4.35;;;;;;;;;;5079721;28;20051;-66
2023/05/10 09:12:35;;;;;;;7.00;4.13;;;;;;;;;;5075950;27;20075;-66
2023/05/10 09:15:02;;;;;;;9.68;4.38;;;;;;;;;;5075931;27;20044;-66
2023/05/10 09:17:29;;;;;;;8.02;3.92;;;;;;;;;;5075197;28;20032;-66
2023/05/10 09:19:59;;;;;;;6.90;4.30;;;;;;;;;;5059539;28;20048;-66
2023/05/10 09:22:26;;;;;;;7.38;4.75;;;;;;;;;;5093769;27;20484;-66
2023/05/10 09:25:05;;;;;;;8.95;5.45;;;;;;;;;;5075901;27;20044;-66
2023/05/10 09:27:31;;;;;;;9.30;5.28;;;;;;;;;;5096405;27;20123;-66
2023/05/10 09:29:57;;;;;;;9.88;6.15;;;;;;;;;;5079682;28;20055;-66
2023/05/10 09:32:36;;;;;;;7.93;5.38;;;;;;;;;;5075519;28;20510;-66
2023/05/10 09:35:07;;;;;;;9.25;5.50;;;;;;;;;;5076330;28;20040;-66
2023/05/10 09:37:33;;;;;;;9.40;5.80;;;;;;;;;;5060990;28;20047;-66
2023/05/10 09:39:59;;;;;;;8.77;6.03;;;;;;;;;;5094767;28;20473;-66
2023/05/10 09:42:26;;;;;;;9.93;6.90;;;;;;;;;;5094452;27;20058;-66
2023/05/10 09:44:52;;;;;;;11.18;7.28;;;;;;;;;;5097091;28;20036;-66
2023/05/10 09:47:19;;;;;;;10.93;7.57;;;;;;;;;;5056470;28;20043;-66
2023/05/10 09:49:50;;;;;;;13.25;7.75;;;;;;;;;;5090471;28;20040;-66
2023/05/10 09:52:16;;;;;;;11.23;7.22;;;;;;;;;;5094895;27;20048;-66
2023/05/10 09:54:46;;;;;;;11.88;7.82;;;;;;;;;;5097781;27;20460;-66
2023/05/10 09:57:21;;;;;;;13.10;8.38;;;;;;;;;;5073940;28;20056;-66
2023/05/10 09:59:48;;;;;;;18.63;8.20;;;;;;;;;;5076190;28;20503;-66
2023/05/10 10:02:14;;;;;;;13.35;7.93;;;;;;;;;;5077381;28;20044;-66
2023/05/10 10:04:41;;;;;;;13.27;8.27;;;;;;;;;;5078329;28;20050;-64
2023/05/10 10:07:07;;;;;;;13.07;7.35;;;;;;;;;;5095317;27;20589;-66
2023/05/10 10:09:34;;;;;;;14.20;7.45;;;;;;;;;;5095775;27;20170;-67
2023/05/10 10:12:01;;;;;;;12.45;7.03;;;;;;;;;;5090990;28;20568;-66
2023/05/10 10:14:28;;;;;;;10.27;6.10;;;;;;;;;;5078094;28;20035;-66
2023/05/10 10:16:55;;;;;;;9.82;6.97;;;;;;;;;;5077653;27;20507;-66
2023/05/10 10:19:21;;;;;;;9.38;5.70;;;;;;;;;;5080786;28;20064;-66
2023/05/10 10:21:48;;;;;;;10.98;6.30;;;;;;;;;;5075369;28;20036;-66
2023/05/10 10:24:14;;;;;;;9.50;6.32;;;;;;;;;;5076796;28;20425;-66
2023/05/10 10:26:42;;;;;;;9.02;5.78;;;;;;;;;;5077318;28;20051;-66
2023/05/10 10:29:08;;;;;;;7.45;5.10;;;;;;;;;;5098943;28;20048;-66
2023/05/10 10:31:45;;;;;;;9.25;5.53;;;;;;;;;;5096598;27;20057;-66
2023/05/10 10:34:17;;;;;;;11.63;6.50;;;;;;;;;;5094596;27;20126;-66
2023/05/10 10:36:45;;;;;;;10.48;6.35;;;;;;;;;;5074050;28;20036;-66
2023/05/10 10:39:12;;;;;;;10.82;6.53;;;;;;;;;;5074396;28;20458;-66
2023/05/10 10:41:42;;;;;;;9.43;6.32;;;;;;;;;;5079041;28;20440;-66
2023/05/10 10:44:34;;;;;;;9.55;5.95;;;;;;;;;;5092186;28;20052;-66
2023/05/10 10:47:05;;;;;;;9.50;6.25;;;;;;;;;;5080958;28;20521;-66
2023/05/10 10:49:32;;;;;;;14.35;6.50;;;;;;;;;;5097111;27;20040;-66
2023/05/10 10:52:17;;;;;;;8.07;5.32;;;;;;;;;;5079407;28;20153;-66
2023/05/10 10:54:52;;;;;;;8.30;5.07;;;;;;;;;;5082809;28;20105;-66
2023/05/10 10:57:20;;;;;;;8.98;5.47;;;;;;;;;;5091243;27;20085;-66
2023/05/10 10:59:46;;;;;;;8.88;5.63;;;;;;;;;;5077743;28;20040;-66
2023/05/10 11:02:31;;;;;;;10.40;6.60;;;;;;;;;;5092311;27;20048;-66
2023/05/10 11:04:58;;;;;;;7.78;5.63;;;;;;;;;;5073303;28;20472;-66
2023/05/10 11:07:24;;;;;;;9.30;5.63;;;;;;;;;;5092249;27;20356;-65
2023/05/10 11:09:51;;;;;;;9.45;5.80;;;;;;;;;;5076256;28;20079;-66
2023/05/10 11:12:17;;;;;;;8.85;6.07;;;;;;;;;;5091958;27;20093;-66
2023/05/10 11:14:43;;;;;;;10.20;6.13;;;;;;;;;;5095217;28;20036;-66
2023/05/10 11:17:24;;;;;;;8.68;6.40;;;;;;;;;;5094719;27;20055;-66
2023/05/10 11:20:14;;;;;;;8.02;5.63;;;;;;;;;;5075157;28;20530;-66
2023/05/10 11:22:51;;;;;;;8.70;6.53;;;;;;;;;;5093716;28;20052;-66
2023/05/10 11:25:17;;;;;;;8.57;5.78;;;;;;;;;;5081510;28;20772;-66
2023/05/10 11:27:44;;;;;;;8.85;6.50;;;;;;;;;;5072778;28;20048;-66
2023/05/10 11:30:11;;;;;;;7.53;5.20;;;;;;;;;;5091976;28;20405;-65
2023/05/10 11:32:39;;;;;;;7.45;5.13;;;;;;;;;;5094952;28;20063;-66
2023/05/10 11:35:09;;;;;;;7.72;5.30;;;;;;;;;;5072206;28;20081;-66
2023/05/10 11:37:35;;;;;;;6.30;4.55;;;;;;;;;;5092886;28;20048;-66
2023/05/10 11:40:02;;;;;;;10.65;4.95;;;;;;;;;;5093585;28;20036;-66
2023/05/10 11:42:28;;;;;;;8.98;5.20;;;;;;;;;;5084789;28;20048;-66
2023/05/10 11:44:55;;;;;;;10.00;5.68;;;;;;;;;;5074403;28;20047;-66
2023/05/10 11:47:21;;;;;;;8.13;5.60;;;;;;;;;;5097239;28;20074;-66
2023/05/10 11:49:48;;;;;;;6.95;4.75;;;;;;;;;;5099315;28;20051;-66
2023/05/10 11:52:14;;;;;;;7.50;4.30;;;;;;;;;;5073987;28;20157;-66
2023/05/10 11:54:46;;;;;;;6.53;4.63;;;;;;;;;;5091700;28;20040;-66
2023/05/10 11:57:12;;;;;;;7.82;5.18;;;;;;;;;;5070137;28;20174;-66
2023/05/10 11:59:39;;;;;;;9.50;6.05;;;;;;;;;;5097807;28;20036;-65
2023/05/10 12:02:05;;;;;;;7.90;5.10;;;;;;;;;;5082779;27;20055;-66
2023/05/10 12:04:31;;;;;;;8.07;5.43;;;;;;;;;;5104248;27;20439;-66
2023/05/10 12:06:58;;;;;;;8.30;5.70;;;;;;;;;;5103075;27;20120;-66
2023/05/10 12:09:24;;;;;;;10.93;5.68;;;;;;;;;;5076925;28;20075;-66
2023/05/10 12:11:56;;;;;;;9.50;5.82;;;;;;;;;;5078969;28;20507;-66
2023/05/10 12:14:24;;;;;;;9.50;6.60;;;;;;;;;;5102962;28;20032;-66
2023/05/10 12:16:50;;;;;;;9.48;7.15;;;;;;;;;;5100347;27;20047;-66
2023/05/10 12:19:21;;;;;;;9.40;6.75;;;;;;;;;;5081701;28;20052;-66
2023/05/10 12:21:47;;;;;;;11.57;7.78;;;;;;;;;;5082148;28;20055;-66
2023/05/10 12:24:16;;;;;;;12.68;8.40;;;;;;;;;;5093349;27;20123;-66
2023/05/10 12:26:42;;;;;;;12.52;8.52;;;;;;;;;;5077887;28;20052;-66
2023/05/10 12:29:12;;;;;;;12.57;8.40;;;;;;;;;;5077960;28;20044;-66
2023/05/10 12:31:55;;;;;;;11.68;8.23;;;;;;;;;;5093225;27;20147;-66
2023/05/10 12:34:25;;;;;;;10.35;7.20;;;;;;;;;;5095015;27;20511;-66
2023/05/10 12:36:52;;;;;;;10.70;6.55;;;;;;;;;;5077716;28;20044;-66
2023/05/10 12:39:19;;;;;;;11.77;7.65;;;;;;;;;;5097834;27;20039;-66
2023/05/10 12:41:45;;;;;;;12.73;7.65;;;;;;;;;;5095515;27;20047;-66
2023/05/10 12:44:11;;;;;;;10.65;7.50;;;;;;;;;;5074881;28;20089;-65
2023/05/10 12:46:37;;;;;;;11.20;7.15;;;;;;;;;;5094502;27;20475;-65
2023/05/10 12:49:04;;;;;;;9.38;6.18;;;;;;;;;;5080024;27;20044;-64
2023/05/10 12:51:30;;;;;;;12.57;6.78;;;;;;;;;;5073145;28;20147;-65
2023/05/10 12:53:57;;;;;;;11.27;6.10;;;;;;;;;;5079933;28;20396;-65
2023/05/10 12:56:23;;;;;;;11.90;4.95;;;;;;;;;;5099230;28;20158;-65
2023/05/10 12:58:49;;;;;;;6.70;4.75;;;;;;;;;;5093929;28;20153;-66
2023/05/10 13:01:15;;;;;;;8.00;5.55;;;;;;;;;;5087674;28;20147;-66
2023/05/10 13:03:43;;;;;;;6.68;4.38;;;;;;;;;;5106536;28;20040;-66
2023/05/10 13:06:09;;;;;;;9.55;6.32;;;;;;;;;;5082339;28;20036;-66
2023/05/10 13:08:35;;;;;;;10.52;5.93;;;;;;;;;;5105295;27;20051;-66
2023/05/10 13:11:02;;;;;;;8.02;4.75;;;;;;;;;;5101418;28;20047;-66
2023/05/10 13:13:28;;;;;;;8.70;4.43;;;;;;;;;;5098347;28;20493;-66
2023/05/10 13:15:55;;;;;;;9.07;4.07;;;;;;;;;;5098946;27;20051;-66
2023/05/10 13:18:21;;;;;;;6.30;3.95;;;;;;;;;;5080469;28;20054;-66
2023/05/10 13:20:49;;;;;;;7.43;4.97;;;;;;;;;;5071861;28;20360;-66
2023/05/10 13:23:15;;;;;;;7.68;5.32;;;;;;;;;;5095106;27;20047;-66
2023/05/10 13:25:41;;;;;;;7.43;5.10;;;;;;;;;;5078648;28;20048;-65
2023/05/10 13:28:07;;;;;;;11.73;6.63;;;;;;;;;;5096502;27;20447;-66
2023/05/10 13:30:34;;;;;;;7.22;4.85;;;;;;;;;;5080303;28;20039;-66
2023/05/10 13:33:00;;;;;;;7.05;4.97;;;;;;;;;;5084889;28;20500;-66
2023/05/10 13:35:26;;;;;;;8.02;4.50;;;;;;;;;;5097922;28;20139;-66
2023/05/10 13:37:53;;;;;;;7.10;4.60;;;;;;;;;;5097666;28;20060;-66
2023/05/10 13:40:19;;;;;;;9.45;3.75;;;;;;;;;;5074719;28;20043;-66
2023/05/10 13:42:45;;;;;;;7.13;4.10;;;;;;;;;;5074776;28;20032;-66
2023/05/10 13:45:12;;;;;;;7.35;4.68;;;;;;;;;;5078715;28;21196;-66
2023/05/10 13:47:39;;;;;;;7.53;3.88;;;;;;;;;;5095175;28;20039;-66
2023/05/10 13:50:05;;;;;;;5.60;3.45;;;;;;;;;;5075940;28;20143;-66
2023/05/10 13:52:32;;;;;;;7.97;4.10;;;;;;;;;;5097158;27;20044;-66
2023/05/10 13:54:58;;;;;;;8.15;4.32;;;;;;;;;;5074854;28;20049;-66
2023/05/10 13:57:24;;;;;;;8.45;5.40;;;;;;;;;;5094057;27;20064;-66
2023/05/10 13:59:51;;;;;;;8.52;5.95;;;;;;;;;;5079951;28;20484;-66
2023/05/10 14:02:17;;;;;;;7.60;5.55;;;;;;;;;;5095763;27;20907;-65
2023/05/10 14:04:43;;;;;;;8.85;5.90;;;;;;;;;;5100634;27;20032;-65
2023/05/10 14:07:10;;;;;;;7.53;5.53;;;;;;;;;;5101625;27;20052;-65
2023/05/10 14:09:36;;;;;;;10.18;5.07;;;;;;;;;;5095150;28;20035;-65
2023/05/10 14:12:02;;;;;;;8.07;4.13;;;;;;;;;;5094029;27;20075;-65
2023/05/10 14:14:29;;;;;;;5.30;3.42;;;;;;;;;;5091716;27;20242;-65
2023/05/10 14:16:55;;;;;;;4.57;2.88;;;;;;;;;;5092292;27;20051;-65
2023/05/10 14:19:21;;;;;;;5.93;3.90;;;;;;;;;;5070230;28;20036;-65
2023/05/10 14:21:48;;;;;;;5.47;3.40;;;;;;;;;;5095455;27;20110;-66
2023/05/10 14:24:14;;;;;;;6.00;3.97;;;;;;;;;;5076755;28;20044;-65
2023/05/10 14:26:40;;;;;;;5.43;3.80;;;;;;;;;;5091082;27;20537;-66
2023/05/10 14:29:06;;;;;;;4.47;2.92;;;;;;;;;;5093508;27;20414;-66
2023/05/10 14:31:32;;;;;;;4.85;3.35;;;;;;;;;;5094337;28;20120;-65
2023/05/10 14:33:59;;;;;;;5.93;3.47;;;;;;;;;;5097289;28;20054;-66
2023/05/10 14:36:25;;;;;;;5.60;3.65;;;;;;;;;;5072212;28;20052;-65